Gage Information Page
Francis E. Walter Reservoir, PA

Provisional Data Subject to Revision
Francis E. Walter Reservoir, PA
Amber Threshold Elevation:1392 feet
Red Threshold Elevation:1441 feet
Date (ET) Elevation (ft) Storage (ac-ft) Inflow (cfs) Outflow (cfs)
Oct 25, 2014   9:15 pm 1303.49 2361 283 249
Oct 25, 2014   8:15 pm 1303.47 2359 284 249
Oct 25, 2014   7:15 pm 1303.45 2357 288 249
Oct 25, 2014   6:15 pm 1303.43 2355 291 249
Oct 25, 2014   5:15 pm 1303.40 2351 291 249
Oct 25, 2014   4:15 pm 1303.38 2349 294 249
Oct 25, 2014   3:15 pm 1303.35 2346 294 249
Oct 25, 2014   2:15 pm 1303.33 2344 301 249
Oct 25, 2014   1:15 pm 1303.29 2339 303 249
Oct 25, 2014 12:15 pm 1303.26 2336 304 249
Oct 25, 2014 11:15 am 1303.22 2331 305 249
Oct 25, 2014 10:15 am 1303.18 2327 307 249
Oct 25, 2014   9:15 am 1303.15 2324 313 249
Oct 25, 2014   8:15 am 1303.11 2319 316 249
Oct 25, 2014   7:15 am 1303.08 2316 321 249
Oct 25, 2014   6:15 am 1303.02 2309 319 249
Oct 25, 2014   5:15 am 1302.97 2304 322 249
Oct 25, 2014   4:15 am 1302.93 2299 327 249
Oct 25, 2014   3:15 am 1302.88 2294 329 249
Oct 25, 2014   2:15 am 1302.83 2289 334 249
Oct 25, 2014   1:15 am 1302.76 2281 332 249
Oct 25, 2014 12:15 am 1302.70 2275 334 249
Oct 24, 2014 11:15 pm 1302.64 2268 338 249
Oct 24, 2014 10:15 pm 1302.59 2263 340 249
Report Generated Oct 25, 2014 10:31 PM

NWS Web Info
USGS Web Info